Fugaku Maru — JH3428 — position and weather

sailwx.info

Track history (hours):
 
Tides and Currents Weather Stations Pressure Air Temp Water Temp Dewpoint Dewpoint Depression Visibility Wind Speed Wind Dir Waves Ship Positions

Fugaku Maru

Last reported at 2017-May-21 01:05 UTC. Time now 2017-May-22 15:27 UTC.
Position N 36°17' E 141°04'.

Length 165 m; draft 7.2 m.

Type: Cargo ship. MMSI: 431200176.

Date/timePositionNaut miles runAvg speedWind from/ knotsBaromVisibWave heightAir tempDewpointWater temp
2017-May-21 01:05N 36°17' E 141°04'920.4
2017-May-21 00:39N 36°08' E 141°03'320.4
2017-May-21 00:31N 36°05' E 141°02'7720.1
2017-May-20 20:40N 34°58' E 140°15'521.3
2017-May-20 20:26N 34°56' E 140°10'2121.5
2017-May-20 19:27N 34°45' E 139°48'21 0.9
2017-May-19 18:56N 34°56' E 140°10'  
2017-May-12 22:54N 34°55' E 140°11'920.6
2017-May-12 22:27N 34°50' E 140°02'1121.0
2017-May-12 21:57N 34°46' E 139°50'1120.9
2017-May-12 21:25N 34°41' E 139°38'919.9
2017-May-12 20:56N 34°37' E 139°27'  
Track history (hours):
 
Tides and Currents Weather Stations Pressure Air Temp Water Temp Dewpoint Dewpoint Depression Visibility Wind Speed Wind Dir Waves Ship Positions

Fugaku Maru

Last reported at 2017-May-21 01:05 UTC. Time now 2017-May-22 15:27 UTC.
Position N 36°17' E 141°04'.

Length 165 m; draft 7.2 m.

Type: Cargo ship. MMSI: 431200176.

Date/timePositionNaut miles runAvg speedWind from/ knotsBaromVisibWave heightAir tempDewpointWater temp
2017-May-21 01:05N 36°17' E 141°04'920.4
2017-May-21 00:39N 36°08' E 141°03'320.4
2017-May-21 00:31N 36°05' E 141°02'7720.1
2017-May-20 20:40N 34°58' E 140°15'521.3
2017-May-20 20:26N 34°56' E 140°10'2121.5
2017-May-20 19:27N 34°45' E 139°48'21 0.9
2017-May-19 18:56N 34°56' E 140°10'  
2017-May-12 22:54N 34°55' E 140°11'920.6
2017-May-12 22:27N 34°50' E 140°02'1121.0
2017-May-12 21:57N 34°46' E 139°50'1120.9
2017-May-12 21:25N 34°41' E 139°38'919.9
2017-May-12 20:56N 34°37' E 139°27'  

Dump ship's entire track history